Address 0x1a08b4d6497fa6d5970bd8f6c72bc5fbc8dd500e 13

Txn Hash Method
Block
From
To
Value [Txn Fee]
0xc971fd921e1461a83fb9eb66d099c3ba013eea70c5a520621447d30aedd85ac7Deposit All17673782022-08-31 7:00:1829 days 1 hr ago0x1a08b4d6497fa6d5970bd8f6c72bc5fbc8dd500eOUT 0x4d5bbce91d9bf7434bf358c1199c8a9c333037870 GLMR0.074028758
0x63bab71793203157a7a8986f5bdabc1f98537a6eaf067cef02e541d293e1c1e0Approve17673552022-08-31 6:55:2429 days 2 hrs ago0x1a08b4d6497fa6d5970bd8f6c72bc5fbc8dd500eOUT 0xc6e37086d09ec2048f151d11cdb9f9bbbdb7d6850 GLMR0.004910519
0x75116485aefd1725eb5f61d5d223c54a867b666335390a529718a17617dfda8cWithdraw17673492022-08-31 6:54:0629 days 2 hrs ago0x1a08b4d6497fa6d5970bd8f6c72bc5fbc8dd500eOUT 0xc106c836771b0b4f4a0612bd68163ca93be1d3400 GLMR0.013257765
0x224f27591cbbf5e01e8f5c544f4c04d5166922c1ff660ba2081fb6e7528260ffClaim_rewards17673472022-08-31 6:53:4229 days 2 hrs ago0x1a08b4d6497fa6d5970bd8f6c72bc5fbc8dd500eOUT 0xc106c836771b0b4f4a0612bd68163ca93be1d3400 GLMR0.008399059
0x1bdb3913d94f3b36e460406c838ee5c2ad506a45eeb20b680a587c84fc94f57cDeposit16303642022-08-11 14:30:0048 days 18 hrs ago0x1a08b4d6497fa6d5970bd8f6c72bc5fbc8dd500eOUT 0xc106c836771b0b4f4a0612bd68163ca93be1d3400 GLMR0.01877489
0xdc4b95e3a720aa33973fa37b85db9d29398c9713a297823e1c766d7096468c4bApprove16303612022-08-11 14:29:2448 days 18 hrs ago0x1a08b4d6497fa6d5970bd8f6c72bc5fbc8dd500eOUT 0xc6e37086d09ec2048f151d11cdb9f9bbbdb7d6850 GLMR0.004938395
0x444707fbcd48a6e94df795f835c8cf88d34eacd1b08db3a483155edcad7ca944Add_liquidity16303592022-08-11 14:29:0048 days 18 hrs ago0x1a08b4d6497fa6d5970bd8f6c72bc5fbc8dd500eOUT 0xc6e37086d09ec2048f151d11cdb9f9bbbdb7d6850 GLMR0.016496229
0xbaff1dcac65764d1385af2ef94effdf07a7680dde3be70f29d972cd8519f6464Approve16303572022-08-11 14:28:3648 days 18 hrs ago0x1a08b4d6497fa6d5970bd8f6c72bc5fbc8dd500eOUT 0xfa36fe1da08c89ec72ea1f0143a35bfd5daea1080 GLMR0.005656404
0xa19afda710c701d360919fc040cfee3aa382ef397e26e1afb1e084888c31c764Transfer*16303552022-08-11 14:28:1248 days 18 hrs ago0x1a08b4d6497fa6d5970bd8f6c72bc5fbc8dd500eOUTMoonbeam Network: xcDOT Token0 GLMR0.00363095
0x914b5fcd0b265c36fd7696fd15663a9a526a7ee5593d60bc22f80109eedf05ccRemove_liquidity16303482022-08-11 14:26:4248 days 18 hrs ago0x1a08b4d6497fa6d5970bd8f6c72bc5fbc8dd500eOUT 0x0ffc46cd9716a96d8d89e1965774a70dcb851e500 GLMR0.010913151
0xae782926311ab42acc2569439f705581396768f2ebfcd0aed6440470eec1ca69Claim_rewards16303372022-08-11 14:24:2448 days 18 hrs ago0x1a08b4d6497fa6d5970bd8f6c72bc5fbc8dd500eOUT 0xe74d531b0c7db81e84643d106522c783d61c96750 GLMR0.008074849
0xcd814519205d11aed4ab0bccfc84283bfc92419073be642fe6a1b6a890baa837Withdraw16303262022-08-11 14:22:0648 days 18 hrs ago0x1a08b4d6497fa6d5970bd8f6c72bc5fbc8dd500eOUT 0xe74d531b0c7db81e84643d106522c783d61c96750 GLMR0.014638132
0x402f34c87d0b71da8012e840a912a5fbb17b622f56f5814fef508c0f729bca1bDeposit14721812022-07-19 12:30:4871 days 20 hrs ago0x1a08b4d6497fa6d5970bd8f6c72bc5fbc8dd500eOUT 0xe74d531b0c7db81e84643d106522c783d61c96750 GLMR0.01877489
0xf055263c90244494bfeec9b6a3a0607294fe682076598a9154b55ce2ae37e657Approve14721772022-07-19 12:30:0071 days 20 hrs ago0x1a08b4d6497fa6d5970bd8f6c72bc5fbc8dd500eOUT 0x0ffc46cd9716a96d8d89e1965774a70dcb851e500 GLMR0.004938395
0x89ec731db95ebed0ea07095d13b090541e4ed2557c050f29b73440db84d23ff1Add_liquidity14721742022-07-19 12:29:2471 days 20 hrs ago0x1a08b4d6497fa6d5970bd8f6c72bc5fbc8dd500eOUT 0x0ffc46cd9716a96d8d89e1965774a70dcb851e500 GLMR0.012015869
0x06e5c60ac8b92f85b179ba7c5f4151ca98c6c1d2d0444a5dc4baa370ee0ee149Transfer*14721722022-07-19 12:29:0071 days 20 hrs ago0x1a08b4d6497fa6d5970bd8f6c72bc5fbc8dd500eOUTMoonbeam Network: xcDOT Token0 GLMR0.003629233
0xdbe122853dfd561e66ba0ff5e3bb09387be558db253e61ae32ed119cd921a81aSwap Exact ETH F...14721572022-07-19 12:25:4871 days 20 hrs ago0x1a08b4d6497fa6d5970bd8f6c72bc5fbc8dd500eOUT StellaSwap: Router v2.1695 GLMR0.011623888
0xcf4dc4e12bd004e85f62e9a088fddb08869b58a47cf9e494944cd8655a2120c0Transfer14721492022-07-19 12:24:1271 days 20 hrs agoBinance 1 IN 0x1a08b4d6497fa6d5970bd8f6c72bc5fbc8dd500e694.32388 GLMR0.0042
0x20530e9c2ae9bf34517e32e4395a3cc681ac7d7cffb3bfb19fc0aff98786e2a8Enter Markets14717822022-07-19 11:05:4271 days 21 hrs ago0x1a08b4d6497fa6d5970bd8f6c72bc5fbc8dd500eOUT 0x8e00d5e02e65a19337cdba98bba9f84d4186a1800 GLMR0.009958499
0x166c72dc69c0388fb68fea0c9493ad03f21940be05fc542768feae86dc8631c1Mint14717722022-07-19 11:03:3671 days 21 hrs ago0x1a08b4d6497fa6d5970bd8f6c72bc5fbc8dd500eOUT 0x091608f4e4a15335145be0a279483c0f8e4c7955100 GLMR0.018194948
0xbb173a8ad4babd6625a743c723e64adb50f64dd7f80f88c934dfe3ebcd62a4dbDeposit All13768892022-07-05 13:14:5485 days 19 hrs ago0x1a08b4d6497fa6d5970bd8f6c72bc5fbc8dd500eOUT 0x515989a9add6bb3ab78b59a2ae30e398e740886f0 GLMR0.054397388
0x4de726a2b70f71f28e974f7d54692ac3d2c84ae85f8ab5703a07f530e69daf25Approve13768872022-07-05 13:14:3085 days 19 hrs ago0x1a08b4d6497fa6d5970bd8f6c72bc5fbc8dd500eOUT 0x7f5ac0fc127bcf1eaf54e3cd01b00300a0861a620 GLMR0.004670038
0x08efe991de75cc2782a160b1acec4dddb1ec32345b622fb1e7281d9baf79020aWithdraw13768802022-07-05 13:13:0685 days 19 hrs ago0x1a08b4d6497fa6d5970bd8f6c72bc5fbc8dd500eOUT StellaSwap: Distributor0 GLMR0.0145131805
0x0bf7ac64340d46f43bf0fd32a122be7d5db1217fd4f964d56b86903e6e067a3dDeposit13754072022-07-05 8:02:1886 days 56 mins ago0x1a08b4d6497fa6d5970bd8f6c72bc5fbc8dd500eOUT StellaSwap: Distributor0 GLMR0.014828416
0x77640bdc58d55115dae5f84c92f53c9a4ca42dd4288d28588a96b6a0daad9064Add Liquidity ET...13753932022-07-05 7:59:3086 days 58 mins ago0x1a08b4d6497fa6d5970bd8f6c72bc5fbc8dd500eOUT StellaSwap: Router v2.137 GLMR0.015885179
[ Download CSV Export 
Latest 6 internal transactions
Parent Txn Hash Block From To Value
0x77640bdc58d55115dae5f84c92f53c9a4ca42dd4288d28588a96b6a0daad906413753932022-07-05 7:59:3086 days 58 mins ago StellaSwap: Router v2.10x1a08b4d6497fa6d5970bd8f6c72bc5fbc8dd500e0.000220913025086673 GLMR
0xffe13238dca65a10dce3d2f29778a3878ae654b6cd51f49b1c946aa91678157813753732022-07-05 7:55:3086 days 1 hr ago 0xb7c18df30663da7c749181d5f8690dca4dafbf440x1a08b4d6497fa6d5970bd8f6c72bc5fbc8dd500e12.977769318118264452 GLMR
0x19b13136fef1d7791b5b792364efcfa032052733dbdb5ad80a23b9009223dd7813221462022-06-27 11:17:4293 days 21 hrs ago 0xb7c18df30663da7c749181d5f8690dca4dafbf440x1a08b4d6497fa6d5970bd8f6c72bc5fbc8dd500e9.340232459378216779 GLMR
0x0fc0684938272b335c28347ef07a06e99bcf79485eaa05f06eefc67b32320a2913221392022-06-27 11:16:0693 days 21 hrs ago StellaSwap: Router v2.10x1a08b4d6497fa6d5970bd8f6c72bc5fbc8dd500e11.068481078056888184 GLMR
0x190aad1af9231c51c66526bd0ac335785963d6579ec48cac3f211ff1d632af8312705882022-06-19 18:22:24101 days 14 hrs ago StellaSwap: Router v2.10x1a08b4d6497fa6d5970bd8f6c72bc5fbc8dd500e196.055175615910828595 GLMR
0x49f77284cf2cc11161fc1c8f2ea156c70ea36a1864f38ae0c232eb9374ffdf372056932022-01-16 9:04:48255 days 23 hrs ago Zenlink: Router0x1a08b4d6497fa6d5970bd8f6c72bc5fbc8dd500e138.422847275981875711 GLMR
[ Download CSV Export 
Loading

Contract Name:
0

Compiler Version
0

Optimization Enabled:
0

Other Settings:
-NA-
Block Transaction Gas Used Reward
Age Block Fee Address BC Fee Address Voting Power Jailed Incoming
Block Uncle Number Difficulty Gas Used Reward
Loading
Make sure to use the "Vote Down" button for any spammy posts, and the "Vote Up" for interesting conversations.